Time;durP1;ratioP1;P1;durP2;ratioP2;P2;SDS_P1;SDS_P2;PMS_P1;PMS_P2;Temp;Humidity;BMP_temperature;BMP_pressure;BME280_temperature;BME280_humidity;BME280_pressure;Samples;Min_cycle;Max_cycle;Signal;HPM_P1;HPM_P2
2022/03/22 00:02:03;;;;;;;12.67;8.93;;;;;;;6.82;43.40;98046.78;5093735;28;20397;-64
2022/03/22 00:04:29;;;;;;;13.68;9.68;;;;;;;6.62;43.86;98046.41;5091843;28;20508;-64
2022/03/22 00:06:55;;;;;;;12.63;9.07;;;;;;;6.60;43.78;98045.75;5080868;28;20445;-64
2022/03/22 00:09:21;;;;;;;11.77;9.63;;;;;;;6.74;43.24;98044.22;5073452;28;20426;-65
2022/03/22 00:11:50;;;;;;;12.60;9.90;;;;;;;6.88;42.82;98036.47;5074261;28;20391;-64
2022/03/22 00:14:18;;;;;;;12.68;9.27;;;;;;;6.81;43.20;98029.50;5080431;28;20394;-65
2022/03/22 00:16:43;;;;;;;12.27;9.73;;;;;;;7.02;42.18;98027.13;5093789;28;20402;-64
2022/03/22 00:19:08;;;;;;;12.63;9.13;;;;;;;7.08;41.88;98019.38;5093592;28;20859;-64
2022/03/22 00:21:35;;;;;;;12.40;9.70;;;;;;;7.01;42.11;98028.91;5093316;28;20808;-64
2022/03/22 00:24:01;;;;;;;12.73;9.40;;;;;;;7.12;41.99;98025.09;5088828;28;20407;-63
2022/03/22 00:26:27;;;;;;;12.27;9.32;;;;;;;6.94;42.03;98029.75;5073374;28;20391;-64
2022/03/22 00:28:53;;;;;;;12.68;9.10;;;;;;;6.88;42.43;98022.63;5073289;28;20909;-64
2022/03/22 00:31:18;;;;;;;11.43;8.68;;;;;;;6.85;42.39;98028.19;5056443;28;20388;-63
2022/03/22 00:33:44;;;;;;;12.18;9.32;;;;;;;6.78;42.73;98025.47;5088833;28;20404;-63
2022/03/22 00:36:10;;;;;;;11.77;9.00;;;;;;;6.82;42.50;98028.53;5055069;28;20384;-63
2022/03/22 00:38:36;;;;;;;10.93;8.85;;;;;;;6.69;43.08;98027.28;5073053;28;20392;-63
2022/03/22 00:41:01;;;;;;;13.90;9.10;;;;;;;6.72;42.82;98026.16;5072793;28;20453;-64
2022/03/22 00:43:26;;;;;;;13.20;8.80;;;;;;;6.59;42.79;98029.31;5074951;28;20391;-65
2022/03/22 00:45:52;;;;;;;11.88;9.18;;;;;;;6.66;43.14;98032.03;5092810;28;20747;-64
2022/03/22 00:48:17;;;;;;;11.80;9.03;;;;;;;6.74;42.82;98033.81;5093126;28;20382;-64
2022/03/22 00:50:51;;;;;;;12.65;9.23;;;;;;;6.83;42.53;98023.16;5081741;28;20918;-63
2022/03/22 00:53:18;;;;;;;13.02;9.30;;;;;;;6.76;42.74;98022.22;5089110;28;20406;-64
2022/03/22 00:55:44;;;;;;;13.05;9.25;;;;;;;6.77;42.60;98023.03;5073824;28;20890;-64
2022/03/22 00:58:10;;;;;;;11.18;9.05;;;;;;;6.68;43.10;98015.28;5085967;28;20402;-64
2022/03/22 01:00:37;;;;;;;12.55;9.32;;;;;;;6.89;42.53;98012.03;5082724;28;20405;-64
2022/03/22 01:03:04;;;;;;;11.93;9.00;;;;;;;6.71;42.71;98011.50;5060237;28;20516;-64
2022/03/22 01:05:30;;;;;;;12.60;9.30;;;;;;;6.62;43.25;98021.16;5073946;28;20396;-64
2022/03/22 01:08:01;;;;;;;11.07;8.77;;;;;;;6.54;43.20;98017.78;5054794;28;20533;-64
2022/03/22 01:10:29;;;;;;;12.87;9.60;;;;;;;6.52;43.50;98017.94;5081202;28;20473;-64
2022/03/22 01:12:55;;;;;;;13.07;9.20;;;;;;;6.38;43.63;98017.84;5092861;28;20409;-64
2022/03/22 01:15:23;;;;;;;12.57;9.07;;;;;;;6.42;43.77;98012.13;5078252;28;20750;-63
2022/03/22 01:17:54;;;;;;;13.02;9.32;;;;;;;6.43;43.90;98015.56;5072505;28;20379;-64
2022/03/22 01:20:20;;;;;;;12.50;9.25;;;;;;;6.40;44.00;98014.13;5079691;28;20387;-64
2022/03/22 01:22:47;;;;;;;14.48;9.40;;;;;;;6.47;43.67;98004.63;5092290;28;20402;-64
2022/03/22 01:25:16;;;;;;;12.00;9.57;;;;;;;6.42;43.49;97998.28;5061087;28;20990;-64
2022/03/22 01:27:43;;;;;;;12.50;9.30;;;;;;;6.41;43.69;98007.13;5073032;28;20757;-65
2022/03/22 01:30:12;;;;;;;13.45;9.50;;;;;;;6.30;44.40;98005.66;5071615;28;20789;-64
2022/03/22 01:32:38;;;;;;;13.82;10.40;;;;;;;6.30;44.38;97999.69;5054100;28;20415;-64
2022/03/22 01:35:05;;;;;;;15.60;10.37;;;;;;;6.47;43.92;98006.41;5071900;28;20405;-65
2022/03/22 01:37:31;;;;;;;12.20;9.50;;;;;;;6.39;44.11;97998.66;5074063;28;20427;-65
2022/03/22 01:39:57;;;;;;;12.63;10.10;;;;;;;6.69;43.64;97995.22;5071942;28;20466;-63
2022/03/22 01:42:23;;;;;;;13.77;9.57;;;;;;;6.76;43.38;97997.94;5072121;28;20384;-63
2022/03/22 01:44:49;;;;;;;15.05;9.88;;;;;;;6.68;43.53;97993.63;5071901;28;20403;-64
2022/03/22 01:47:19;;;;;;;11.48;9.05;;;;;;;6.40;44.29;97995.88;5072718;28;20485;-63
2022/03/22 01:49:47;;;;;;;11.75;9.20;;;;;;;6.18;44.69;97989.63;5073043;28;20402;-64
2022/03/22 01:52:18;;;;;;;12.27;9.45;;;;;;;6.16;44.56;97991.59;5091484;28;20915;-63
2022/03/22 01:54:44;;;;;;;12.77;9.88;;;;;;;6.09;44.69;97989.81;5091625;28;20467;-63
2022/03/22 01:57:10;;;;;;;13.37;9.77;;;;;;;5.89;45.69;97997.22;5060702;28;20770;-63
2022/03/22 01:59:35;;;;;;;13.07;9.73;;;;;;;6.10;44.94;97994.03;5071873;28;20486;-64
2022/03/22 02:07:31;;;;;;;15.75;11.02;;;;;;;6.12;45.50;97989.50;5088034;28;20417;-64
2022/03/22 02:09:57;;;;;;;15.53;10.50;;;;;;;5.71;46.35;97992.19;5088185;28;20395;-64
2022/03/22 02:12:23;;;;;;;18.60;11.05;;;;;;;5.92;45.97;97990.84;5071799;28;20408;-63
2022/03/22 02:14:48;;;;;;;15.60;11.27;;;;;;;6.01;45.42;97987.25;5053410;28;20396;-64
2022/03/22 02:17:14;;;;;;;14.80;11.03;;;;;;;6.09;45.54;97988.03;5085339;28;20389;-64
2022/03/22 02:19:40;;;;;;;15.13;10.77;;;;;;;5.80;46.51;97983.38;5056204;28;20406;-64
2022/03/22 02:22:12;;;;;;;15.32;10.45;;;;;;;5.43;47.28;97976.13;5071890;28;20416;-63
2022/03/22 02:24:38;;;;;;;14.25;10.90;;;;;;;5.11;48.79;97972.75;5077596;28;20406;-64
2022/03/22 02:27:05;;;;;;;14.38;10.32;;;;;;;5.00;49.13;97971.28;5091545;28;20390;-63
2022/03/22 02:29:31;;;;;;;15.25;10.70;;;;;;;5.02;49.21;97971.94;5069754;28;20398;-65
2022/03/22 02:31:57;;;;;;;16.08;10.93;;;;;;;4.85;49.15;97971.09;5070946;28;20388;-64
2022/03/22 02:34:22;;;;;;;16.03;11.10;;;;;;;5.01;49.93;97971.13;5076857;28;20386;-64
2022/03/22 02:36:47;;;;;;;14.63;11.27;;;;;;;4.93;49.87;97970.31;5091060;28;20874;-64
2022/03/22 02:39:13;;;;;;;16.65;11.63;;;;;;;4.88;50.46;97965.59;5090860;28;20386;-64
2022/03/22 02:41:38;;;;;;;15.10;11.40;;;;;;;4.85;50.04;97970.28;5090883;28;20382;-64
2022/03/22 02:44:04;;;;;;;14.45;10.88;;;;;;;4.74;51.23;97968.81;5073947;28;20406;-63
2022/03/22 02:46:30;;;;;;;15.70;11.35;;;;;;;5.08;50.12;97971.28;5091141;28;20943;-64
2022/03/22 02:48:55;;;;;;;16.83;11.60;;;;;;;5.02;50.47;97970.16;5091059;28;20386;-64
2022/03/22 02:51:21;;;;;;;15.83;11.37;;;;;;;5.01;50.63;97976.31;5090896;28;20730;-64
2022/03/22 02:53:46;;;;;;;14.63;10.82;;;;;;;4.76;50.50;97981.66;5090310;28;20825;-65
2022/03/22 02:56:12;;;;;;;16.17;11.52;;;;;;;4.71;51.89;97979.53;5071500;28;20392;-63
2022/03/22 02:58:39;;;;;;;15.10;11.47;;;;;;;4.57;51.82;97980.16;5071349;28;20415;-63
2022/03/22 03:01:04;;;;;;;16.55;11.20;;;;;;;4.60;52.49;97983.25;5078549;28;20392;-64
2022/03/22 03:03:32;;;;;;;16.10;11.70;;;;;;;4.56;52.62;97978.56;5070923;28;20388;-64
2022/03/22 03:05:57;;;;;;;16.25;11.65;;;;;;;4.62;52.07;97980.50;5087115;28;20406;-64
2022/03/22 03:08:26;;;;;;;13.73;11.03;;;;;;;4.53;52.44;97977.06;5072876;28;20397;-64
2022/03/22 03:10:52;;;;;;;15.50;11.15;;;;;;;4.49;52.41;97973.19;5074770;28;20479;-64
2022/03/22 03:13:17;;;;;;;18.17;11.98;;;;;;;4.59;52.62;97976.44;5090991;28;20552;-63
2022/03/22 03:15:44;;;;;;;16.13;11.73;;;;;;;4.41;52.25;97977.53;5093014;28;20858;-63
2022/03/22 03:18:09;;;;;;;15.68;11.52;;;;;;;4.57;52.15;97977.56;5094646;28;20386;-64
2022/03/22 03:20:35;;;;;;;15.17;11.37;;;;;;;4.37;52.57;97984.81;5079905;28;20907;-64
2022/03/22 03:23:00;;;;;;;15.87;11.33;;;;;;;4.23;52.98;97985.44;5074446;28;20404;-63
2022/03/22 03:25:26;;;;;;;14.70;11.40;;;;;;;4.28;53.42;97987.56;5095198;28;20405;-63
2022/03/22 03:27:52;;;;;;;16.70;11.67;;;;;;;4.28;53.23;97987.56;5094585;28;20406;-63
2022/03/22 03:30:18;;;;;;;15.75;11.57;;;;;;;4.28;53.85;97987.56;5082100;28;20388;-64
2022/03/22 03:32:44;;;;;;;16.40;12.07;;;;;;;4.30;53.73;97980.41;5089475;28;20901;-64
2022/03/22 03:35:09;;;;;;;16.37;12.20;;;;;;;4.26;53.52;97989.47;5074034;28;20401;-64
2022/03/22 03:37:35;;;;;;;18.30;12.30;;;;;;;4.18;53.53;97988.47;5074303;28;20383;-63
2022/03/22 03:40:05;;;;;;;16.88;12.05;;;;;;;4.11;54.62;97992.69;5083596;28;20382;-64
2022/03/22 03:42:30;;;;;;;17.38;11.63;;;;;;;4.25;53.53;97991.25;5080813;28;20400;-63
2022/03/22 03:47:40;;;;;;;16.50;12.40;;;;;;;4.43;53.99;97983.38;5073994;28;20386;-64
2022/03/22 03:50:07;;;;;;;17.00;12.57;;;;;;;4.64;52.47;97988.94;5083783;28;20386;-64
2022/03/22 03:52:35;;;;;;;16.63;11.95;;;;;;;4.58;53.40;97985.19;5075972;28;20412;-64
2022/03/22 03:55:03;;;;;;;17.45;11.70;;;;;;;4.47;53.64;97990.69;5093822;28;20406;-65
2022/03/22 03:57:29;;;;;;;16.77;11.80;;;;;;;4.38;53.62;97991.63;5075103;28;20398;-64
2022/03/22 03:59:55;;;;;;;16.17;11.77;;;;;;;4.31;53.78;97990.63;5073915;28;20392;-64
2022/03/22 04:02:21;;;;;;;16.58;11.77;;;;;;;4.37;53.48;97992.59;5088383;28;20398;-64
2022/03/22 04:04:51;;;;;;;16.98;11.32;;;;;;;4.18;54.15;97985.06;5092203;28;20432;-64
2022/03/22 04:07:22;;;;;;;15.67;11.27;;;;;;;4.22;54.41;97993.38;5073915;28;20484;-64
2022/03/22 04:09:47;;;;;;;16.25;11.77;;;;;;;4.23;54.54;97982.84;5073921;28;20394;-64
2022/03/22 04:12:13;;;;;;;16.38;11.90;;;;;;;4.04;55.04;97986.50;5087439;28;20785;-64
2022/03/22 04:14:38;;;;;;;17.47;12.17;;;;;;;4.01;55.04;97993.78;5093327;28;20386;-65
2022/03/22 04:17:08;;;;;;;16.97;12.17;;;;;;;3.96;55.82;97986.44;5073707;28;20430;-64
2022/03/22 04:19:35;;;;;;;17.98;12.02;;;;;;;3.97;55.85;97993.25;5080819;28;20417;-64
2022/03/22 04:22:02;;;;;;;16.90;12.02;;;;;;;3.85;55.96;97985.88;5093663;28;20393;-64
2022/03/22 04:24:28;;;;;;;16.15;11.98;;;;;;;3.92;56.05;97987.72;5093192;28;20436;-64
2022/03/22 04:26:53;;;;;;;17.63;11.77;;;;;;;3.89;55.95;97990.63;5074226;28;20402;-64
2022/03/22 04:34:48;;;;;;;16.13;11.93;;;;;;;3.92;56.07;97985.13;5073103;28;20398;-64
2022/03/22 04:37:14;;;;;;;17.13;12.50;;;;;;;3.85;56.49;97988.47;5073266;28;20395;-64
2022/03/22 04:39:42;;;;;;;16.60;11.13;;;;;;;3.74;56.83;97992.97;5080733;28;20420;-64
2022/03/22 04:42:08;;;;;;;14.48;10.88;;;;;;;3.82;56.71;97996.59;5073320;28;20393;-64
2022/03/22 04:44:34;;;;;;;16.05;11.45;;;;;;;4.07;56.12;98003.50;5093582;28;20931;-64
2022/03/22 04:47:00;;;;;;;17.75;11.82;;;;;;;3.74;57.20;97998.16;5074602;28;20403;-64
2022/03/22 04:49:27;;;;;;;15.23;11.55;;;;;;;3.61;58.22;97996.97;5073085;28;20950;-64
2022/03/22 04:57:21;;;;;;;20.65;11.90;;;;;;;3.14;60.47;98002.44;5084270;28;20783;-64
2022/03/22 04:59:47;;;;;;;17.83;12.20;;;;;;;3.20;60.43;98003.63;5072630;28;20388;-64
2022/03/22 05:02:13;;;;;;;18.13;11.93;;;;;;;3.24;60.70;98005.75;5088008;28;20389;-64
2022/03/22 05:04:38;;;;;;;16.17;11.50;;;;;;;3.16;60.67;98010.09;5091256;28;20823;-64
2022/03/22 05:07:04;;;;;;;15.50;11.50;;;;;;;3.32;60.64;98017.97;5086816;28;20391;-64
2022/03/22 05:09:30;;;;;;;16.58;11.90;;;;;;;3.01;61.03;98021.94;5071993;28;20403;-64
2022/03/22 05:11:56;;;;;;;18.40;12.18;;;;;;;3.02;60.87;98020.94;5066209;28;20399;-64
2022/03/22 05:14:22;;;;;;;16.95;12.23;;;;;;;3.00;61.62;98026.31;5092202;28;20913;-64
2022/03/22 05:16:47;;;;;;;15.17;11.57;;;;;;;2.95;61.48;98028.53;5088768;28;20458;-64
2022/03/22 05:19:13;;;;;;;17.50;12.27;;;;;;;2.86;62.93;98025.03;5071639;28;20391;-64
2022/03/22 05:21:39;;;;;;;19.30;12.60;;;;;;;2.92;62.38;98032.22;5072032;28;20462;-64
2022/03/22 05:24:06;;;;;;;19.52;11.95;;;;;;;2.88;62.22;98030.06;5087058;28;20443;-64
2022/03/22 05:26:31;;;;;;;14.90;11.75;;;;;;;3.04;62.41;98039.75;5090355;28;20394;-64
2022/03/22 05:28:57;;;;;;;15.93;11.55;;;;;;;3.03;62.14;98036.34;5072219;28;20398;-65
2022/03/22 05:31:22;;;;;;;21.30;12.27;;;;;;;2.94;62.61;98047.59;5075062;28;20400;-65
2022/03/22 05:33:49;;;;;;;16.33;12.07;;;;;;;2.95;62.50;98048.41;5079496;28;20788;-65
2022/03/22 05:36:15;;;;;;;16.55;11.95;;;;;;;3.22;62.30;98048.34;5072091;28;20460;-64
2022/03/22 05:38:41;;;;;;;17.02;12.30;;;;;;;3.14;61.70;98043.91;5088008;28;20391;-65
2022/03/22 05:41:08;;;;;;;15.77;11.50;;;;;;;3.34;61.71;98045.34;5082513;28;20470;-64
2022/03/22 05:43:34;;;;;;;17.25;12.52;;;;;;;3.37;61.08;98049.44;5081849;28;20426;-65
2022/03/22 05:46:00;;;;;;;18.77;12.45;;;;;;;3.28;61.17;98048.56;5092094;28;20901;-66
2022/03/22 05:48:26;;;;;;;17.52;12.02;;;;;;;3.66;60.53;98044.78;5091836;28;20412;-66
2022/03/22 05:50:52;;;;;;;16.27;12.37;;;;;;;3.50;60.99;98042.09;5085622;28;20392;-65
2022/03/22 05:53:17;;;;;;;19.55;12.43;;;;;;;3.61;61.12;98041.03;5071744;28;20852;-65
2022/03/22 05:55:43;;;;;;;17.98;11.45;;;;;;;3.93;60.16;98040.41;5071786;28;20415;-65
2022/03/22 05:58:09;;;;;;;16.53;12.10;;;;;;;3.98;60.04;98044.16;5086196;28;20383;-64
2022/03/22 06:00:35;;;;;;;16.60;12.20;;;;;;;4.24;58.47;98044.13;5090733;28;20390;-65
2022/03/22 06:03:01;;;;;;;17.23;12.38;;;;;;;4.20;58.95;98040.22;5076629;28;20396;-65
2022/03/22 06:05:30;;;;;;;16.67;11.95;;;;;;;4.75;56.68;98039.75;5069425;28;20454;-65
2022/03/22 06:07:57;;;;;;;16.65;11.52;;;;;;;4.94;56.25;98045.50;5091651;28;20398;-64
2022/03/22 06:10:23;;;;;;;15.35;11.60;;;;;;;4.81;56.53;98046.91;5083149;28;20408;-64
2022/03/22 06:12:51;;;;;;;17.97;11.20;;;;;;;5.14;55.56;98034.78;5071577;28;20411;-65
2022/03/22 06:15:26;;;;;;;16.00;11.32;;;;;;;5.30;55.21;98038.19;5074585;28;20519;-65
2022/03/22 06:17:57;;;;;;;16.23;11.52;;;;;;;5.52;54.52;98034.13;5090528;28;20498;-65
2022/03/22 06:20:39;;;;;;;16.35;11.45;;;;;;;5.49;54.82;98033.66;5079584;28;20388;-65
2022/03/22 06:23:07;;;;;;;15.70;11.63;;;;;;;5.59;54.08;98029.09;5071703;28;20394;-65
2022/03/22 06:25:36;;;;;;;17.40;11.88;;;;;;;6.02;53.40;98035.72;5053457;28;20992;-65
2022/03/22 06:28:04;;;;;;;15.75;11.50;;;;;;;6.11;52.53;98042.53;5071341;28;20391;-65
2022/03/22 06:30:30;;;;;;;16.35;11.48;;;;;;;6.18;53.12;98035.69;5082029;28;20465;-65
2022/03/22 06:32:58;;;;;;;15.52;11.38;;;;;;;6.41;52.07;98038.38;5091080;28;20414;-65
2022/03/22 06:35:26;;;;;;;17.23;11.77;;;;;;;6.54;51.09;98038.63;5091277;28;20477;-65
2022/03/22 06:37:52;;;;;;;17.90;11.85;;;;;;;6.60;51.22;98043.97;5090900;28;20439;-65
2022/03/22 06:40:19;;;;;;;17.20;12.13;;;;;;;6.76;50.62;98035.25;5079715;28;20399;-66
2022/03/22 06:42:46;;;;;;;16.60;12.20;;;;;;;7.12;49.82;98027.69;5070853;28;20941;-65
2022/03/22 06:45:12;;;;;;;16.10;11.40;;;;;;;7.32;49.36;98030.63;5070476;28;20463;-65
2022/03/22 06:47:41;;;;;;;16.00;11.25;;;;;;;7.33;48.54;98035.69;5067358;28;20410;-65
2022/03/22 06:50:08;;;;;;;17.00;12.27;;;;;;;7.29;48.49;98034.41;5082777;28;20381;-65
2022/03/22 06:52:34;;;;;;;15.07;11.63;;;;;;;7.79;47.65;98027.78;5095204;28;20449;-65
2022/03/22 06:55:00;;;;;;;18.02;12.13;;;;;;;7.57;47.56;98041.69;5073255;28;20452;-65
2022/03/22 06:57:28;;;;;;;17.38;12.18;;;;;;;7.39;48.98;98053.25;5060125;28;20764;-65
2022/03/22 07:00:00;;;;;;;15.95;12.35;;;;;;;7.46;48.25;98043.72;5064676;28;20389;-65
2022/03/22 07:02:26;;;;;;;19.02;12.43;;;;;;;7.44;48.54;98044.88;5055056;28;20874;-65
2022/03/22 07:04:52;;;;;;;16.50;12.15;;;;;;;7.87;47.58;98048.56;5054712;28;20397;-65
2022/03/22 07:07:18;;;;;;;18.10;12.20;;;;;;;7.92;47.54;98049.66;5059073;28;20812;-66
2022/03/22 07:09:44;;;;;;;14.63;11.52;;;;;;;8.07;46.87;98052.28;5057787;28;20414;-66
2022/03/22 07:12:10;;;;;;;17.10;12.13;;;;;;;8.45;46.25;98045.19;5057879;28;20391;-65
2022/03/22 07:14:38;;;;;;;16.70;11.50;;;;;;;8.40;46.10;98052.78;5074125;28;20817;-65
2022/03/22 07:17:04;;;;;;;15.80;11.70;;;;;;;8.40;45.57;98044.94;5071747;28;21311;-65
2022/03/22 07:19:30;;;;;;;16.63;12.05;;;;;;;8.30;46.23;98062.69;5072005;28;20396;-65
2022/03/22 07:21:57;;;;;;;15.95;12.13;;;;;;;8.49;47.66;98054.28;5062657;28;20391;-64
2022/03/22 07:24:22;;;;;;;16.65;12.43;;;;;;;8.57;47.73;98053.38;5073187;28;20423;-65
2022/03/22 07:26:48;;;;;;;15.60;12.00;;;;;;;8.50;48.00;98058.53;5072016;28;20419;-65
2022/03/22 07:29:13;;;;;;;17.38;12.27;;;;;;;8.64;47.76;98062.09;5053375;28;20409;-66
2022/03/22 07:31:40;;;;;;;17.40;12.03;;;;;;;8.50;49.15;98058.53;5057187;28;20426;-65
2022/03/22 07:34:11;;;;;;;14.27;11.32;;;;;;;8.82;47.46;98061.72;5072508;28;20408;-65
2022/03/22 07:36:37;;;;;;;16.15;11.45;;;;;;;8.94;45.98;98057.63;5072556;28;20392;-67
2022/03/22 07:39:03;;;;;;;15.13;11.60;;;;;;;9.01;45.65;98056.72;5062467;28;20383;-65
2022/03/22 07:41:29;;;;;;;18.08;11.77;;;;;;;8.88;46.40;98059.19;5073705;28;20392;-65
2022/03/22 07:43:55;;;;;;;15.32;11.38;;;;;;;8.80;46.00;98066.34;5072795;28;20395;-65
2022/03/22 07:46:26;;;;;;;16.37;11.93;;;;;;;9.11;46.23;98070.28;5072605;28;20744;-65
2022/03/22 07:48:52;;;;;;;16.15;11.23;;;;;;;9.33;45.46;98065.88;5070600;28;20937;-64
2022/03/22 07:54:02;;;;;;;15.10;11.55;;;;;;;9.42;46.23;98058.69;5076990;28;20777;-65
2022/03/22 07:56:28;;;;;;;16.67;11.45;;;;;;;9.54;45.96;98065.06;5092155;28;20394;-64
2022/03/22 07:58:53;;;;;;;19.47;11.57;;;;;;;9.76;45.17;98064.03;5078386;28;20389;-64
2022/03/22 08:01:19;;;;;;;16.07;11.77;;;;;;;9.14;46.69;98067.28;5091892;28;20382;-65
2022/03/22 08:03:45;;;;;;;16.88;11.60;;;;;;;9.65;45.49;98067.16;5089067;28;20819;-65
2022/03/22 08:06:10;;;;;;;17.90;11.63;;;;;;;10.08;44.94;98067.09;5088452;28;20865;-64
2022/03/22 08:08:43;;;;;;;15.17;11.73;;;;;;;9.97;45.09;98071.84;5075654;28;20400;-65
2022/03/22 08:11:09;;;;;;;16.75;11.32;;;;;;;10.09;44.05;98068.69;5092857;28;20743;-65
2022/03/22 08:13:36;;;;;;;16.60;12.15;;;;;;;10.19;44.31;98069.22;5081891;28;20402;-63
2022/03/22 08:16:02;;;;;;;19.17;12.00;;;;;;;10.18;44.58;98076.25;5062682;28;20392;-64
2022/03/22 08:18:27;;;;;;;16.90;13.05;;;;;;;9.92;45.58;98071.59;5073275;28;20795;-64
2022/03/22 08:20:53;;;;;;;17.70;11.88;;;;;;;9.89;44.96;98069.38;5093237;28;20504;-64
2022/03/22 08:23:18;;;;;;;17.53;12.67;;;;;;;9.89;45.01;98071.19;5079968;28;20396;-64
2022/03/22 08:25:43;;;;;;;15.97;12.27;;;;;;;9.99;45.33;98071.66;5092036;28;20397;-64
2022/03/22 08:28:11;;;;;;;18.10;11.90;;;;;;;10.06;45.06;98069.91;5092981;28;20863;-64
2022/03/22 08:30:38;;;;;;;15.02;11.98;;;;;;;10.06;45.29;98069.09;5077436;28;20900;-64
2022/03/22 08:33:09;;;;;;;16.35;11.60;;;;;;;10.20;43.71;98068.19;5080165;28;20522;-64
2022/03/22 08:35:36;;;;;;;16.50;11.47;;;;;;;10.50;43.22;98074.81;5072747;28;20394;-64
2022/03/22 08:38:02;;;;;;;15.23;11.37;;;;;;;10.58;42.77;98074.69;5089012;28;20842;-64
2022/03/22 08:40:27;;;;;;;16.67;11.27;;;;;;;10.84;42.32;98072.16;5088827;28;20394;-64
2022/03/22 08:42:55;;;;;;;16.13;11.60;;;;;;;10.93;42.91;98078.03;5087506;28;20409;-64
2022/03/22 08:45:24;;;;;;;16.55;11.98;;;;;;;10.99;42.48;98077.25;5073144;28;20782;-64
2022/03/22 08:47:51;;;;;;;16.88;11.85;;;;;;;10.98;42.81;98070.38;5054515;28;20404;-64
2022/03/22 08:50:19;;;;;;;16.83;12.10;;;;;;;11.09;42.33;98069.03;5089467;28;20451;-64
2022/03/22 08:52:49;;;;;;;16.00;11.70;;;;;;;11.15;42.45;98082.13;5086961;28;20422;-64
2022/03/22 08:55:17;;;;;;;15.60;11.02;;;;;;;11.05;43.19;98070.41;5086268;28;20418;-64
2022/03/22 08:57:44;;;;;;;15.20;11.13;;;;;;;11.19;42.55;98074.69;5080448;28;20482;-64
2022/03/22 09:00:11;;;;;;;17.27;11.60;;;;;;;11.31;42.31;98070.47;5072230;28;20396;-64
2022/03/22 09:02:39;;;;;;;16.38;12.15;;;;;;;11.24;42.07;98067.84;5062982;28;20393;-64
2022/03/22 09:07:51;;;;;;;16.73;12.37;;;;;;;11.31;42.49;98067.84;5085174;28;20435;-64
2022/03/22 09:10:19;;;;;;;16.67;12.03;;;;;;;11.31;42.70;98064.44;5072138;28;20423;-64
2022/03/22 09:12:44;;;;;;;15.25;11.52;;;;;;;11.26;42.29;98067.63;5081435;28;20424;-64
2022/03/22 09:15:11;;;;;;;18.80;12.27;;;;;;;11.26;42.04;98067.63;5091427;28;20381;-64
2022/03/22 09:17:37;;;;;;;18.38;12.45;;;;;;;11.34;42.75;98067.44;5083138;28;20403;-64
2022/03/22 09:20:04;;;;;;;17.15;12.23;;;;;;;11.29;42.65;98069.88;5072006;28;20410;-63
2022/03/22 09:22:29;;;;;;;16.55;11.57;;;;;;;11.34;43.11;98069.25;5079143;28;20893;-64
2022/03/22 09:24:55;;;;;;;15.37;11.53;;;;;;;11.38;43.36;98073.09;5080602;28;20395;-63
2022/03/22 09:27:20;;;;;;;15.65;11.70;;;;;;;11.31;43.39;98070.47;5072253;28;20445;-64
2022/03/22 09:29:45;;;;;;;19.03;12.00;;;;;;;11.17;43.74;98067.00;5084131;28;20881;-64
2022/03/22 09:32:11;;;;;;;14.67;11.13;;;;;;;11.06;44.05;98064.97;5071615;28;20756;-64
2022/03/22 09:34:36;;;;;;;15.32;11.90;;;;;;;11.38;44.24;98073.09;5088345;28;20523;-64
2022/03/22 09:37:02;;;;;;;16.17;12.23;;;;;;;11.26;44.10;98065.81;5092037;28;20858;-64
2022/03/22 09:39:27;;;;;;;16.92;11.93;;;;;;;11.17;43.36;98063.56;5091621;28;20408;-64
2022/03/22 09:41:56;;;;;;;16.27;12.23;;;;;;;11.08;43.83;98068.22;5091489;28;20401;-63
2022/03/22 09:44:21;;;;;;;16.67;12.15;;;;;;;11.10;44.37;98068.00;5088435;28;20419;-64
2022/03/22 09:46:51;;;;;;;14.67;11.63;;;;;;;11.26;44.15;98063.19;5071918;28;20418;-64
2022/03/22 09:49:17;;;;;;;18.05;12.40;;;;;;;11.46;43.97;98060.59;5071857;28;20388;-63
2022/03/22 09:51:47;;;;;;;17.63;11.80;;;;;;;11.46;43.95;98059.78;5071956;28;20398;-64
2022/03/22 09:54:17;;;;;;;16.58;12.13;;;;;;;11.30;42.45;98065.44;5075603;28;20428;-64
2022/03/22 09:56:44;;;;;;;18.70;12.10;;;;;;;11.60;43.49;98056.97;5087633;28;20428;-64
2022/03/22 09:59:10;;;;;;;18.02;12.95;;;;;;;11.59;44.08;98060.59;5091301;28;20393;-64
2022/03/22 10:01:37;;;;;;;18.45;12.50;;;;;;;11.41;44.44;98049.09;5083944;28;20470;-64
2022/03/22 10:04:07;;;;;;;17.77;13.27;;;;;;;11.18;45.21;98054.69;5073584;28;20460;-65
2022/03/22 10:06:33;;;;;;;16.85;12.15;;;;;;;11.26;44.53;98060.56;5075402;28;20382;-63
2022/03/22 10:08:59;;;;;;;18.08;12.13;;;;;;;11.43;44.20;98049.66;5091379;28;20858;-63
2022/03/22 10:11:40;;;;;;;17.17;11.93;;;;;;;11.57;43.76;98053.94;5091603;28;20859;-63
2022/03/22 10:14:10;;;;;;;18.23;12.20;;;;;;;11.65;43.28;98051.91;5087455;28;20410;-64
2022/03/22 10:16:52;;;;;;;16.70;12.15;;;;;;;11.29;43.28;98051.50;5091481;28;20428;-64
2022/03/22 10:19:17;;;;;;;17.48;12.38;;;;;;;11.32;42.24;98048.44;5086508;28;20410;-63
2022/03/22 10:21:44;;;;;;;18.43;12.37;;;;;;;11.64;42.99;98046.88;5071662;28;20478;-64
2022/03/22 10:24:12;;;;;;;17.90;11.50;;;;;;;11.79;42.72;98039.63;5079771;28;20505;-64
2022/03/22 10:26:38;;;;;;;14.93;11.90;;;;;;;12.19;41.63;98040.38;5085769;28;20434;-64
2022/03/22 10:29:06;;;;;;;16.63;12.17;;;;;;;12.37;41.33;98034.47;5077384;28;20390;-65
2022/03/22 10:31:38;;;;;;;16.13;12.30;;;;;;;12.51;40.91;98036.03;5076731;28;20731;-67
2022/03/22 10:34:04;;;;;;;17.50;11.90;;;;;;;12.07;39.58;98034.94;5087571;28;20403;-64
2022/03/22 10:36:34;;;;;;;16.60;12.40;;;;;;;11.50;41.80;98035.56;5075163;28;20396;-63
2022/03/22 10:39:00;;;;;;;18.75;12.00;;;;;;;11.72;42.36;98033.53;5076326;28;20402;-63
2022/03/22 10:41:30;;;;;;;15.52;11.85;;;;;;;11.86;42.27;98032.56;5075781;28;20756;-64
2022/03/22 10:44:06;;;;;;;17.55;12.65;;;;;;;12.23;41.73;98030.25;5074799;28;20470;-64
2022/03/22 10:46:32;;;;;;;19.50;13.00;;;;;;;12.00;41.37;98022.81;5072813;28;20700;-63
2022/03/22 10:49:05;;;;;;;16.35;12.70;;;;;;;12.06;40.98;98029.88;5082456;28;20858;-63
2022/03/22 10:51:35;;;;;;;16.80;12.32;;;;;;;12.21;41.29;98030.47;5094823;28;20405;-64
2022/03/22 10:54:01;;;;;;;19.35;12.55;;;;;;;12.54;40.46;98021.69;5094906;28;20486;-63
2022/03/22 10:56:30;;;;;;;21.67;13.25;;;;;;;11.99;40.30;98024.63;5094570;28;20402;-63
2022/03/22 10:58:57;;;;;;;18.55;12.77;;;;;;;12.19;40.63;98019.38;5090282;28;20399;-63
2022/03/22 11:01:23;;;;;;;21.00;13.10;;;;;;;11.84;40.70;98024.06;5076206;28;20387;-63
2022/03/22 11:03:50;;;;;;;17.53;12.90;;;;;;;12.00;40.85;98028.06;5083541;28;20744;-63
2022/03/22 11:06:18;;;;;;;20.27;12.67;;;;;;;12.22;40.97;98026.00;5094355;28;20830;-63
2022/03/22 11:08:43;;;;;;;19.20;12.85;;;;;;;12.32;40.10;98026.38;5094529;28;20418;-63
2022/03/22 11:11:09;;;;;;;17.93;12.67;;;;;;;12.27;39.38;98020.94;5088644;28;20403;-65
2022/03/22 11:13:34;;;;;;;18.33;12.00;;;;;;;12.44;39.60;98022.91;5092104;28;20414;-64
2022/03/22 11:16:01;;;;;;;19.87;13.03;;;;;;;12.49;38.04;98020.47;5094715;28;20386;-63
2022/03/22 11:18:28;;;;;;;17.83;12.55;;;;;;;12.25;38.29;98017.72;5058365;28;20438;-64
2022/03/22 11:21:03;;;;;;;17.80;12.77;;;;;;;12.43;37.95;98018.66;5078835;28;20401;-64
2022/03/22 11:23:30;;;;;;;17.30;12.27;;;;;;;12.77;37.42;98022.78;5094368;28;20401;-69
2022/03/22 11:26:09;;;;;;;18.48;12.43;;;;;;;12.79;37.27;98012.84;5076346;28;20415;-64
2022/03/22 11:28:35;;;;;;;18.08;12.68;;;;;;;12.73;36.87;98012.88;5075967;28;20392;-64
2022/03/22 11:31:01;;;;;;;15.75;11.70;;;;;;;12.78;36.64;98016.50;5078976;28;20386;-64
2022/03/22 11:36:14;;;;;;;19.23;12.02;;;;;;;12.83;35.71;98008.78;5093745;28;20388;-64
2022/03/22 11:38:49;;;;;;;17.63;11.40;;;;;;;13.02;35.71;98006.25;5075341;28;20394;-65
2022/03/22 11:44:37;;;;;;;15.52;11.85;;;;;;;13.10;33.99;98011.25;5093844;28;20397;-65
2022/03/22 11:47:12;;;;;;;17.10;12.00;;;;;;;12.98;34.56;98008.50;5089851;28;20422;-65
2022/03/22 11:49:49;;;;;;;18.63;12.95;;;;;;;13.00;34.65;98008.28;5075774;28;20476;-64
2022/03/22 11:52:16;;;;;;;19.73;13.38;;;;;;;13.16;35.09;98005.19;5093664;28;20782;-64
2022/03/22 11:54:53;;;;;;;18.42;13.00;;;;;;;13.37;34.10;97999.56;5080579;28;20894;-66